sensor_id;sensor_type;location;lat;lon;timestamp;temperature;humidity
19152;DHT22;9708;53.114;9.388;2022-09-30T00:01:51;10.00;99.90
19152;DHT22;9708;53.114;9.388;2022-09-30T00:04:22;10.00;99.90
19152;DHT22;9708;53.114;9.388;2022-09-30T00:06:50;9.90;99.90
19152;DHT22;9708;53.114;9.388;2022-09-30T00:09:18;9.80;99.90
19152;DHT22;9708;53.114;9.388;2022-09-30T00:11:46;9.80;99.90
19152;DHT22;9708;53.114;9.388;2022-09-30T00:14:15;9.80;99.90
19152;DHT22;9708;53.114;9.388;2022-09-30T00:16:42;9.80;99.90
19152;DHT22;9708;53.114;9.388;2022-09-30T00:19:09;9.90;99.90
19152;DHT22;9708;53.114;9.388;2022-09-30T00:21:37;9.80;99.90
19152;DHT22;9708;53.114;9.388;2022-09-30T00:24:05;9.80;99.90
19152;DHT22;9708;53.114;9.388;2022-09-30T00:26:33;9.80;99.90
19152;DHT22;9708;53.114;9.388;2022-09-30T00:29:00;9.80;99.90
19152;DHT22;9708;53.114;9.388;2022-09-30T00:31:29;9.80;99.90
19152;DHT22;9708;53.114;9.388;2022-09-30T00:33:56;9.80;99.90
19152;DHT22;9708;53.114;9.388;2022-09-30T00:36:33;9.80;99.90
19152;DHT22;9708;53.114;9.388;2022-09-30T00:39:02;9.80;99.90
19152;DHT22;9708;53.114;9.388;2022-09-30T00:41:29;9.90;99.90
19152;DHT22;9708;53.114;9.388;2022-09-30T00:43:56;9.90;99.90
19152;DHT22;9708;53.114;9.388;2022-09-30T00:46:31;9.90;99.90
19152;DHT22;9708;53.114;9.388;2022-09-30T00:49:06;9.90;99.90
19152;DHT22;9708;53.114;9.388;2022-09-30T00:51:35;9.90;99.90
19152;DHT22;9708;53.114;9.388;2022-09-30T00:54:10;9.90;99.90
19152;DHT22;9708;53.114;9.388;2022-09-30T00:56:40;9.90;99.90
19152;DHT22;9708;53.114;9.388;2022-09-30T00:59:11;9.90;99.90
19152;DHT22;9708;53.114;9.388;2022-09-30T01:01:40;9.90;99.90
19152;DHT22;9708;53.114;9.388;2022-09-30T01:04:10;10.00;99.90
19152;DHT22;9708;53.114;9.388;2022-09-30T01:06:38;10.00;99.90
19152;DHT22;9708;53.114;9.388;2022-09-30T01:09:06;9.90;99.90
19152;DHT22;9708;53.114;9.388;2022-09-30T01:11:33;10.00;99.90
19152;DHT22;9708;53.114;9.388;2022-09-30T01:14:01;9.90;99.90
19152;DHT22;9708;53.114;9.388;2022-09-30T01:16:39;10.00;99.90
19152;DHT22;9708;53.114;9.388;2022-09-30T01:19:36;10.00;99.90
19152;DHT22;9708;53.114;9.388;2022-09-30T01:22:33;9.90;99.90
19152;DHT22;9708;53.114;9.388;2022-09-30T01:25:17;9.80;99.90
19152;DHT22;9708;53.114;9.388;2022-09-30T01:28:24;9.80;99.90
19152;DHT22;9708;53.114;9.388;2022-09-30T01:31:10;9.70;99.90
19152;DHT22;9708;53.114;9.388;2022-09-30T01:33:46;9.60;99.90
19152;DHT22;9708;53.114;9.388;2022-09-30T01:36:39;9.50;99.90
19152;DHT22;9708;53.114;9.388;2022-09-30T01:39:26;9.40;99.90
19152;DHT22;9708;53.114;9.388;2022-09-30T01:42:02;9.40;99.90
19152;DHT22;9708;53.114;9.388;2022-09-30T01:44:36;9.40;99.90
19152;DHT22;9708;53.114;9.388;2022-09-30T01:47:10;9.30;99.90
19152;DHT22;9708;53.114;9.388;2022-09-30T01:49:40;9.30;99.90
19152;DHT22;9708;53.114;9.388;2022-09-30T01:52:12;9.40;99.90
19152;DHT22;9708;53.114;9.388;2022-09-30T01:54:44;9.40;99.90
19152;DHT22;9708;53.114;9.388;2022-09-30T01:57:18;9.40;99.90
19152;DHT22;9708;53.114;9.388;2022-09-30T01:59:52;9.30;99.90
19152;DHT22;9708;53.114;9.388;2022-09-30T02:02:23;9.30;99.90
19152;DHT22;9708;53.114;9.388;2022-09-30T02:04:55;9.30;99.90
19152;DHT22;9708;53.114;9.388;2022-09-30T02:07:28;9.20;99.90
19152;DHT22;9708;53.114;9.388;2022-09-30T02:09:59;9.30;99.90
19152;DHT22;9708;53.114;9.388;2022-09-30T02:12:32;9.30;99.90
19152;DHT22;9708;53.114;9.388;2022-09-30T02:15:07;9.30;99.90
19152;DHT22;9708;53.114;9.388;2022-09-30T02:17:40;9.20;99.90
19152;DHT22;9708;53.114;9.388;2022-09-30T02:20:13;9.20;99.90
19152;DHT22;9708;53.114;9.388;2022-09-30T02:22:44;9.10;99.90
19152;DHT22;9708;53.114;9.388;2022-09-30T02:25:16;9.10;99.90
19152;DHT22;9708;53.114;9.388;2022-09-30T02:27:47;9.10;99.90
19152;DHT22;9708;53.114;9.388;2022-09-30T02:30:16;9.10;99.90
19152;DHT22;9708;53.114;9.388;2022-09-30T02:32:49;9.00;99.90
19152;DHT22;9708;53.114;9.388;2022-09-30T02:35:21;9.00;99.90
19152;DHT22;9708;53.114;9.388;2022-09-30T02:37:51;9.00;99.90
19152;DHT22;9708;53.114;9.388;2022-09-30T02:40:23;9.00;99.90
19152;DHT22;9708;53.114;9.388;2022-09-30T02:42:52;9.00;99.90
19152;DHT22;9708;53.114;9.388;2022-09-30T02:45:21;9.00;99.90
19152;DHT22;9708;53.114;9.388;2022-09-30T02:48:05;9.10;99.90
19152;DHT22;9708;53.114;9.388;2022-09-30T02:50:41;9.10;99.90
19152;DHT22;9708;53.114;9.388;2022-09-30T02:53:19;9.00;99.90
19152;DHT22;9708;53.114;9.388;2022-09-30T02:56:10;8.90;99.90
19152;DHT22;9708;53.114;9.388;2022-09-30T02:58:39;8.90;99.90
19152;DHT22;9708;53.114;9.388;2022-09-30T03:01:06;9.00;99.90
19152;DHT22;9708;53.114;9.388;2022-09-30T03:03:40;8.90;99.90
19152;DHT22;9708;53.114;9.388;2022-09-30T03:06:08;8.90;99.90
19152;DHT22;9708;53.114;9.388;2022-09-30T03:08:35;8.90;99.90
19152;DHT22;9708;53.114;9.388;2022-09-30T03:11:03;8.70;99.90
19152;DHT22;9708;53.114;9.388;2022-09-30T03:14:01;8.70;99.90
19152;DHT22;9708;53.114;9.388;2022-09-30T03:16:47;8.60;99.90
19152;DHT22;9708;53.114;9.388;2022-09-30T03:19:27;8.40;99.90
19152;DHT22;9708;53.114;9.388;2022-09-30T03:22:18;8.30;99.90
19152;DHT22;9708;53.114;9.388;2022-09-30T03:25:10;8.40;99.90
19152;DHT22;9708;53.114;9.388;2022-09-30T03:27:48;8.50;99.90
19152;DHT22;9708;53.114;9.388;2022-09-30T03:30:19;8.40;99.90
19152;DHT22;9708;53.114;9.388;2022-09-30T03:32:58;8.40;99.90
19152;DHT22;9708;53.114;9.388;2022-09-30T03:35:31;8.30;99.90
19152;DHT22;9708;53.114;9.388;2022-09-30T03:38:02;8.30;99.90
19152;DHT22;9708;53.114;9.388;2022-09-30T03:40:39;8.20;99.90
19152;DHT22;9708;53.114;9.388;2022-09-30T03:43:15;8.10;99.90
19152;DHT22;9708;53.114;9.388;2022-09-30T03:45:49;8.10;99.90
19152;DHT22;9708;53.114;9.388;2022-09-30T03:48:17;8.10;99.90
19152;DHT22;9708;53.114;9.388;2022-09-30T03:50:47;8.00;99.90
19152;DHT22;9708;53.114;9.388;2022-09-30T03:53:14;7.90;99.90
19152;DHT22;9708;53.114;9.388;2022-09-30T03:55:45;7.90;99.90
19152;DHT22;9708;53.114;9.388;2022-09-30T03:58:16;7.80;99.90
19152;DHT22;9708;53.114;9.388;2022-09-30T04:00:46;7.70;99.90
19152;DHT22;9708;53.114;9.388;2022-09-30T04:03:14;7.70;99.90
19152;DHT22;9708;53.114;9.388;2022-09-30T04:05:41;7.70;99.90
19152;DHT22;9708;53.114;9.388;2022-09-30T04:08:09;7.60;99.90
19152;DHT22;9708;53.114;9.388;2022-09-30T04:10:38;7.60;99.90
19152;DHT22;9708;53.114;9.388;2022-09-30T04:13:05;7.50;99.90
19152;DHT22;9708;53.114;9.388;2022-09-30T04:15:32;7.50;99.90
19152;DHT22;9708;53.114;9.388;2022-09-30T04:17:58;7.40;99.90
19152;DHT22;9708;53.114;9.388;2022-09-30T04:20:25;7.40;99.90
19152;DHT22;9708;53.114;9.388;2022-09-30T04:22:52;7.40;99.90
19152;DHT22;9708;53.114;9.388;2022-09-30T04:25:20;7.30;99.90
19152;DHT22;9708;53.114;9.388;2022-09-30T04:27:47;7.40;99.90
19152;DHT22;9708;53.114;9.388;2022-09-30T04:30:14;7.30;99.90
19152;DHT22;9708;53.114;9.388;2022-09-30T04:32:41;7.30;99.90
19152;DHT22;9708;53.114;9.388;2022-09-30T04:35:10;7.50;99.90
19152;DHT22;9708;53.114;9.388;2022-09-30T04:37:41;7.50;99.90
19152;DHT22;9708;53.114;9.388;2022-09-30T04:40:08;7.50;99.90
19152;DHT22;9708;53.114;9.388;2022-09-30T04:42:36;7.40;99.90
19152;DHT22;9708;53.114;9.388;2022-09-30T04:45:04;7.30;99.90
19152;DHT22;9708;53.114;9.388;2022-09-30T04:47:30;7.30;99.90
19152;DHT22;9708;53.114;9.388;2022-09-30T04:49:57;7.20;99.90
19152;DHT22;9708;53.114;9.388;2022-09-30T04:52:24;7.20;99.90
19152;DHT22;9708;53.114;9.388;2022-09-30T04:54:51;7.20;99.90
19152;DHT22;9708;53.114;9.388;2022-09-30T04:57:18;7.10;99.90
19152;DHT22;9708;53.114;9.388;2022-09-30T04:59:46;7.10;99.90
19152;DHT22;9708;53.114;9.388;2022-09-30T05:02:15;7.10;99.90
19152;DHT22;9708;53.114;9.388;2022-09-30T05:04:42;7.10;99.90
19152;DHT22;9708;53.114;9.388;2022-09-30T05:07:09;7.10;99.90
19152;DHT22;9708;53.114;9.388;2022-09-30T05:09:36;7.10;99.90
19152;DHT22;9708;53.114;9.388;2022-09-30T05:12:03;7.10;99.90
19152;DHT22;9708;53.114;9.388;2022-09-30T05:14:30;7.10;99.90
19152;DHT22;9708;53.114;9.388;2022-09-30T05:16:59;7.10;99.90
19152;DHT22;9708;53.114;9.388;2022-09-30T05:19:26;7.20;99.90
19152;DHT22;9708;53.114;9.388;2022-09-30T05:21:53;7.10;99.90
19152;DHT22;9708;53.114;9.388;2022-09-30T05:24:20;7.10;99.90
19152;DHT22;9708;53.114;9.388;2022-09-30T05:26:47;7.10;99.90
19152;DHT22;9708;53.114;9.388;2022-09-30T05:29:13;7.10;99.90
19152;DHT22;9708;53.114;9.388;2022-09-30T05:31:40;7.20;99.90
19152;DHT22;9708;53.114;9.388;2022-09-30T05:34:09;7.10;99.90
19152;DHT22;9708;53.114;9.388;2022-09-30T05:36:35;7.10;99.90
19152;DHT22;9708;53.114;9.388;2022-09-30T05:39:02;7.10;99.90
19152;DHT22;9708;53.114;9.388;2022-09-30T05:41:29;7.10;99.90
19152;DHT22;9708;53.114;9.388;2022-09-30T05:43:57;7.10;99.90
19152;DHT22;9708;53.114;9.388;2022-09-30T05:46:26;7.20;99.90
19152;DHT22;9708;53.114;9.388;2022-09-30T05:48:53;7.20;99.90
19152;DHT22;9708;53.114;9.388;2022-09-30T05:51:21;7.30;99.90
19152;DHT22;9708;53.114;9.388;2022-09-30T05:53:48;7.20;99.90
19152;DHT22;9708;53.114;9.388;2022-09-30T05:56:16;7.30;99.90
19152;DHT22;9708;53.114;9.388;2022-09-30T05:58:43;7.20;99.90
19152;DHT22;9708;53.114;9.388;2022-09-30T06:01:13;7.30;99.90
19152;DHT22;9708;53.114;9.388;2022-09-30T06:03:41;7.30;99.90
19152;DHT22;9708;53.114;9.388;2022-09-30T06:06:08;7.30;99.90
19152;DHT22;9708;53.114;9.388;2022-09-30T06:08:36;7.30;99.90
19152;DHT22;9708;53.114;9.388;2022-09-30T06:11:07;7.30;99.90
19152;DHT22;9708;53.114;9.388;2022-09-30T06:13:36;7.30;99.90
19152;DHT22;9708;53.114;9.388;2022-09-30T06:16:04;7.60;99.90
19152;DHT22;9708;53.114;9.388;2022-09-30T06:18:31;7.80;99.90
19152;DHT22;9708;53.114;9.388;2022-09-30T06:20:59;8.10;99.90
19152;DHT22;9708;53.114;9.388;2022-09-30T06:23:27;8.20;99.90
19152;DHT22;9708;53.114;9.388;2022-09-30T06:25:55;8.60;99.90
19152;DHT22;9708;53.114;9.388;2022-09-30T06:28:22;8.70;99.90
19152;DHT22;9708;53.114;9.388;2022-09-30T06:30:49;8.80;99.90
19152;DHT22;9708;53.114;9.388;2022-09-30T06:33:16;8.90;99.90
19152;DHT22;9708;53.114;9.388;2022-09-30T06:35:43;9.00;99.90
19152;DHT22;9708;53.114;9.388;2022-09-30T06:38:12;9.30;99.90
19152;DHT22;9708;53.114;9.388;2022-09-30T06:40:40;9.40;99.90
19152;DHT22;9708;53.114;9.388;2022-09-30T06:43:08;9.60;99.90
19152;DHT22;9708;53.114;9.388;2022-09-30T06:45:36;9.70;99.90
19152;DHT22;9708;53.114;9.388;2022-09-30T06:48:04;10.40;99.90
19152;DHT22;9708;53.114;9.388;2022-09-30T06:50:32;11.30;99.90
19152;DHT22;9708;53.114;9.388;2022-09-30T06:53:00;11.70;99.90
19152;DHT22;9708;53.114;9.388;2022-09-30T06:55:28;12.10;99.90
19152;DHT22;9708;53.114;9.388;2022-09-30T06:57:55;12.50;99.90
19152;DHT22;9708;53.114;9.388;2022-09-30T07:00:24;12.80;99.90
19152;DHT22;9708;53.114;9.388;2022-09-30T07:02:53;13.00;99.90
19152;DHT22;9708;53.114;9.388;2022-09-30T07:05:21;13.60;99.90
19152;DHT22;9708;53.114;9.388;2022-09-30T07:07:50;13.50;99.90
19152;DHT22;9708;53.114;9.388;2022-09-30T07:10:18;13.80;99.90
19152;DHT22;9708;53.114;9.388;2022-09-30T07:12:48;14.00;99.90
19152;DHT22;9708;53.114;9.388;2022-09-30T07:15:15;14.10;99.90
19152;DHT22;9708;53.114;9.388;2022-09-30T07:17:43;14.00;99.90
19152;DHT22;9708;53.114;9.388;2022-09-30T07:20:10;14.00;99.90
19152;DHT22;9708;53.114;9.388;2022-09-30T07:22:37;15.00;99.90
19152;DHT22;9708;53.114;9.388;2022-09-30T07:25:05;15.50;99.90
19152;DHT22;9708;53.114;9.388;2022-09-30T07:27:34;15.70;99.90
19152;DHT22;9708;53.114;9.388;2022-09-30T07:30:01;15.80;99.90
19152;DHT22;9708;53.114;9.388;2022-09-30T07:32:29;16.30;99.90
19152;DHT22;9708;53.114;9.388;2022-09-30T07:34:57;16.60;99.90
19152;DHT22;9708;53.114;9.388;2022-09-30T07:37:24;16.60;99.90
19152;DHT22;9708;53.114;9.388;2022-09-30T07:39:51;15.90;99.90
19152;DHT22;9708;53.114;9.388;2022-09-30T07:42:18;16.20;99.90
19152;DHT22;9708;53.114;9.388;2022-09-30T07:44:46;16.30;99.90
19152;DHT22;9708;53.114;9.388;2022-09-30T07:47:14;16.70;99.90
19152;DHT22;9708;53.114;9.388;2022-09-30T07:49:41;16.20;99.90
19152;DHT22;9708;53.114;9.388;2022-09-30T07:52:10;15.90;99.90
19152;DHT22;9708;53.114;9.388;2022-09-30T07:54:39;15.90;99.90
19152;DHT22;9708;53.114;9.388;2022-09-30T07:57:07;15.80;99.90
19152;DHT22;9708;53.114;9.388;2022-09-30T07:59:36;16.00;99.90
19152;DHT22;9708;53.114;9.388;2022-09-30T08:02:04;15.90;99.90
19152;DHT22;9708;53.114;9.388;2022-09-30T08:04:32;16.50;99.90
19152;DHT22;9708;53.114;9.388;2022-09-30T08:07:00;16.30;99.90
19152;DHT22;9708;53.114;9.388;2022-09-30T08:09:29;16.10;99.90
19152;DHT22;9708;53.114;9.388;2022-09-30T08:11:56;16.00;99.90
19152;DHT22;9708;53.114;9.388;2022-09-30T08:14:25;16.20;99.90
19152;DHT22;9708;53.114;9.388;2022-09-30T08:16:52;16.90;99.90
19152;DHT22;9708;53.114;9.388;2022-09-30T08:19:21;17.40;99.90
19152;DHT22;9708;53.114;9.388;2022-09-30T08:21:49;17.30;99.90
19152;DHT22;9708;53.114;9.388;2022-09-30T08:24:17;17.20;99.90
19152;DHT22;9708;53.114;9.388;2022-09-30T08:26:45;17.40;99.90
19152;DHT22;9708;53.114;9.388;2022-09-30T08:29:12;17.50;99.90
19152;DHT22;9708;53.114;9.388;2022-09-30T08:31:40;17.60;99.90
19152;DHT22;9708;53.114;9.388;2022-09-30T08:34:07;17.00;99.90
19152;DHT22;9708;53.114;9.388;2022-09-30T08:36:34;17.70;99.90
19152;DHT22;9708;53.114;9.388;2022-09-30T08:39:01;18.30;99.90
19152;DHT22;9708;53.114;9.388;2022-09-30T08:41:41;18.70;99.90
19152;DHT22;9708;53.114;9.388;2022-09-30T08:44:23;18.00;99.90
19152;DHT22;9708;53.114;9.388;2022-09-30T08:46:57;18.30;99.90
19152;DHT22;9708;53.114;9.388;2022-09-30T08:49:38;19.30;99.90
19152;DHT22;9708;53.114;9.388;2022-09-30T08:52:15;18.00;99.90
19152;DHT22;9708;53.114;9.388;2022-09-30T08:54:46;18.40;99.90
19152;DHT22;9708;53.114;9.388;2022-09-30T08:57:13;18.40;99.90
19152;DHT22;9708;53.114;9.388;2022-09-30T08:59:46;18.00;99.90
19152;DHT22;9708;53.114;9.388;2022-09-30T09:02:20;18.20;99.90
19152;DHT22;9708;53.114;9.388;2022-09-30T09:04:49;18.70;99.90
19152;DHT22;9708;53.114;9.388;2022-09-30T09:07:29;19.20;99.90
19152;DHT22;9708;53.114;9.388;2022-09-30T09:10:13;19.40;99.90
19152;DHT22;9708;53.114;9.388;2022-09-30T09:12:54;19.20;99.90
19152;DHT22;9708;53.114;9.388;2022-09-30T09:15:38;18.50;99.90
19152;DHT22;9708;53.114;9.388;2022-09-30T09:18:32;19.40;99.90
19152;DHT22;9708;53.114;9.388;2022-09-30T09:21:10;18.70;99.90
19152;DHT22;9708;53.114;9.388;2022-09-30T09:23:41;18.70;99.90
19152;DHT22;9708;53.114;9.388;2022-09-30T09:26:09;18.30;99.90
19152;DHT22;9708;53.114;9.388;2022-09-30T09:28:40;18.50;99.90
19152;DHT22;9708;53.114;9.388;2022-09-30T09:31:13;18.80;99.90
19152;DHT22;9708;53.114;9.388;2022-09-30T09:33:41;18.90;99.90
19152;DHT22;9708;53.114;9.388;2022-09-30T09:36:18;18.20;99.90
19152;DHT22;9708;53.114;9.388;2022-09-30T09:39:01;18.50;99.90
19152;DHT22;9708;53.114;9.388;2022-09-30T09:41:38;18.80;99.90
19152;DHT22;9708;53.114;9.388;2022-09-30T09:44:13;17.90;99.90
19152;DHT22;9708;53.114;9.388;2022-09-30T09:46:48;18.80;99.90
19152;DHT22;9708;53.114;9.388;2022-09-30T09:49:36;19.30;99.90
19152;DHT22;9708;53.114;9.388;2022-09-30T09:52:36;18.70;99.90
19152;DHT22;9708;53.114;9.388;2022-09-30T09:55:07;18.40;99.90
19152;DHT22;9708;53.114;9.388;2022-09-30T09:57:36;18.50;99.90
19152;DHT22;9708;53.114;9.388;2022-09-30T10:00:06;17.80;99.90
19152;DHT22;9708;53.114;9.388;2022-09-30T10:03:04;17.80;99.90
19152;DHT22;9708;53.114;9.388;2022-09-30T10:05:34;18.10;99.90
19152;DHT22;9708;53.114;9.388;2022-09-30T10:08:09;18.80;99.90
19152;DHT22;9708;53.114;9.388;2022-09-30T10:10:46;19.10;99.90
19152;DHT22;9708;53.114;9.388;2022-09-30T10:13:19;19.00;99.90
19152;DHT22;9708;53.114;9.388;2022-09-30T10:15:47;19.10;99.90
19152;DHT22;9708;53.114;9.388;2022-09-30T10:18:24;19.40;99.90
19152;DHT22;9708;53.114;9.388;2022-09-30T10:20:54;19.20;99.90
19152;DHT22;9708;53.114;9.388;2022-09-30T10:23:26;19.70;99.90
19152;DHT22;9708;53.114;9.388;2022-09-30T10:25:58;19.20;99.90
19152;DHT22;9708;53.114;9.388;2022-09-30T10:28:27;19.60;99.90
19152;DHT22;9708;53.114;9.388;2022-09-30T10:30:57;19.10;99.90
19152;DHT22;9708;53.114;9.388;2022-09-30T10:33:29;18.80;99.90
19152;DHT22;9708;53.114;9.388;2022-09-30T10:36:03;18.80;99.90
19152;DHT22;9708;53.114;9.388;2022-09-30T10:38:31;19.40;99.90
19152;DHT22;9708;53.114;9.388;2022-09-30T10:41:00;19.30;99.90
19152;DHT22;9708;53.114;9.388;2022-09-30T10:43:32;19.20;99.90
19152;DHT22;9708;53.114;9.388;2022-09-30T10:46:00;19.50;99.90
19152;DHT22;9708;53.114;9.388;2022-09-30T10:48:33;19.80;99.90
19152;DHT22;9708;53.114;9.388;2022-09-30T10:51:00;19.10;99.90
19152;DHT22;9708;53.114;9.388;2022-09-30T10:53:30;19.40;99.90
19152;DHT22;9708;53.114;9.388;2022-09-30T10:55:58;19.90;99.90
19152;DHT22;9708;53.114;9.388;2022-09-30T10:58:40;20.30;99.90
19152;DHT22;9708;53.114;9.388;2022-09-30T11:01:15;19.90;99.90
19152;DHT22;9708;53.114;9.388;2022-09-30T11:03:51;18.90;99.90
19152;DHT22;9708;53.114;9.388;2022-09-30T11:06:21;18.90;99.90
19152;DHT22;9708;53.114;9.388;2022-09-30T11:08:54;19.40;99.90
19152;DHT22;9708;53.114;9.388;2022-09-30T11:11:24;19.20;99.90
19152;DHT22;9708;53.114;9.388;2022-09-30T11:13:55;19.50;99.90
19152;DHT22;9708;53.114;9.388;2022-09-30T11:16:26;19.40;99.90
19152;DHT22;9708;53.114;9.388;2022-09-30T11:19:00;20.00;99.90
19152;DHT22;9708;53.114;9.388;2022-09-30T11:21:34;20.20;99.90
19152;DHT22;9708;53.114;9.388;2022-09-30T11:24:05;20.10;99.90
19152;DHT22;9708;53.114;9.388;2022-09-30T11:26:44;19.60;99.90
19152;DHT22;9708;53.114;9.388;2022-09-30T11:29:37;19.30;99.90
19152;DHT22;9708;53.114;9.388;2022-09-30T11:32:12;19.50;99.90
19152;DHT22;9708;53.114;9.388;2022-09-30T11:34:52;19.90;99.90
19152;DHT22;9708;53.114;9.388;2022-09-30T11:37:35;19.50;99.90
19152;DHT22;9708;53.114;9.388;2022-09-30T11:40:24;19.10;99.90
19152;DHT22;9708;53.114;9.388;2022-09-30T11:42:59;19.20;99.90
19152;DHT22;9708;53.114;9.388;2022-09-30T11:45:35;19.80;99.90
19152;DHT22;9708;53.114;9.388;2022-09-30T11:48:19;20.80;99.90
19152;DHT22;9708;53.114;9.388;2022-09-30T11:50:58;20.30;99.90
19152;DHT22;9708;53.114;9.388;2022-09-30T11:53:39;21.20;99.90
19152;DHT22;9708;53.114;9.388;2022-09-30T11:56:41;19.90;99.90
19152;DHT22;9708;53.114;9.388;2022-09-30T11:59:13;19.40;99.90
19152;DHT22;9708;53.114;9.388;2022-09-30T12:01:46;19.00;99.90
19152;DHT22;9708;53.114;9.388;2022-09-30T12:04:18;19.40;99.90
19152;DHT22;9708;53.114;9.388;2022-09-30T12:06:53;19.80;99.90
19152;DHT22;9708;53.114;9.388;2022-09-30T12:09:25;19.30;99.90
19152;DHT22;9708;53.114;9.388;2022-09-30T12:11:56;18.60;99.90
19152;DHT22;9708;53.114;9.388;2022-09-30T12:14:28;18.30;99.90
19152;DHT22;9708;53.114;9.388;2022-09-30T12:16:56;18.30;99.90
19152;DHT22;9708;53.114;9.388;2022-09-30T12:19:29;18.20;99.90
19152;DHT22;9708;53.114;9.388;2022-09-30T12:22:04;17.90;99.90
19152;DHT22;9708;53.114;9.388;2022-09-30T12:24:35;18.00;99.90
19152;DHT22;9708;53.114;9.388;2022-09-30T12:27:03;18.00;99.90
19152;DHT22;9708;53.114;9.388;2022-09-30T12:29:34;18.10;99.90
19152;DHT22;9708;53.114;9.388;2022-09-30T12:35:35;18.10;99.90
19152;DHT22;9708;53.114;9.388;2022-09-30T12:38:23;18.10;99.90
19152;DHT22;9708;53.114;9.388;2022-09-30T12:41:15;17.70;99.90
19152;DHT22;9708;53.114;9.388;2022-09-30T12:44:23;17.60;99.90
19152;DHT22;9708;53.114;9.388;2022-09-30T12:47:05;17.70;99.90
19152;DHT22;9708;53.114;9.388;2022-09-30T12:49:38;17.90;99.90
19152;DHT22;9708;53.114;9.388;2022-09-30T12:52:10;17.90;99.90
19152;DHT22;9708;53.114;9.388;2022-09-30T12:54:42;17.90;99.90
19152;DHT22;9708;53.114;9.388;2022-09-30T12:57:09;17.80;99.90
19152;DHT22;9708;53.114;9.388;2022-09-30T12:59:38;17.60;99.90
19152;DHT22;9708;53.114;9.388;2022-09-30T13:02:29;17.40;99.90
19152;DHT22;9708;53.114;9.388;2022-09-30T13:05:41;17.30;99.90
19152;DHT22;9708;53.114;9.388;2022-09-30T13:08:36;17.40;99.90
19152;DHT22;9708;53.114;9.388;2022-09-30T13:11:30;17.20;99.90
19152;DHT22;9708;53.114;9.388;2022-09-30T13:14:02;17.20;99.90
19152;DHT22;9708;53.114;9.388;2022-09-30T13:16:58;17.00;99.90
19152;DHT22;9708;53.114;9.388;2022-09-30T13:19:30;16.70;99.90
19152;DHT22;9708;53.114;9.388;2022-09-30T13:25:12;16.80;99.90
19152;DHT22;9708;53.114;9.388;2022-09-30T13:27:42;16.70;99.90
19152;DHT22;9708;53.114;9.388;2022-09-30T13:30:32;16.60;99.90
19152;DHT22;9708;53.114;9.388;2022-09-30T13:36:16;16.80;99.90
19152;DHT22;9708;53.114;9.388;2022-09-30T13:38:43;16.90;99.90
19152;DHT22;9708;53.114;9.388;2022-09-30T13:41:17;17.10;99.90
19152;DHT22;9708;53.114;9.388;2022-09-30T13:43:52;17.10;99.90
19152;DHT22;9708;53.114;9.388;2022-09-30T13:46:30;17.20;99.90
19152;DHT22;9708;53.114;9.388;2022-09-30T13:49:03;17.00;99.90
19152;DHT22;9708;53.114;9.388;2022-09-30T13:51:31;16.90;99.90
19152;DHT22;9708;53.114;9.388;2022-09-30T13:54:02;16.90;99.90
19152;DHT22;9708;53.114;9.388;2022-09-30T13:56:33;16.80;99.90
19152;DHT22;9708;53.114;9.388;2022-09-30T13:59:30;16.90;99.90
19152;DHT22;9708;53.114;9.388;2022-09-30T14:04:57;17.00;99.90
19152;DHT22;9708;53.114;9.388;2022-09-30T14:07:39;17.00;99.90
19152;DHT22;9708;53.114;9.388;2022-09-30T14:10:24;16.90;99.90
19152;DHT22;9708;53.114;9.388;2022-09-30T14:13:07;17.00;99.90
19152;DHT22;9708;53.114;9.388;2022-09-30T14:19:11;17.40;99.90
19152;DHT22;9708;53.114;9.388;2022-09-30T14:21:43;17.30;99.90
19152;DHT22;9708;53.114;9.388;2022-09-30T14:24:13;17.30;99.90
19152;DHT22;9708;53.114;9.388;2022-09-30T14:26:52;17.30;99.90
19152;DHT22;9708;53.114;9.388;2022-09-30T14:29:28;16.90;99.90
19152;DHT22;9708;53.114;9.388;2022-09-30T14:31:58;16.70;99.90
19152;DHT22;9708;53.114;9.388;2022-09-30T14:34:28;16.90;99.90
19152;DHT22;9708;53.114;9.388;2022-09-30T14:36:56;16.70;99.90
19152;DHT22;9708;53.114;9.388;2022-09-30T14:39:26;16.60;99.90
19152;DHT22;9708;53.114;9.388;2022-09-30T14:41:56;16.50;99.90
19152;DHT22;9708;53.114;9.388;2022-09-30T14:44:25;16.40;99.90
19152;DHT22;9708;53.114;9.388;2022-09-30T14:46:53;16.40;99.90
19152;DHT22;9708;53.114;9.388;2022-09-30T14:49:28;16.50;99.90
19152;DHT22;9708;53.114;9.388;2022-09-30T14:52:01;16.40;99.90
19152;DHT22;9708;53.114;9.388;2022-09-30T14:54:30;16.40;99.90
19152;DHT22;9708;53.114;9.388;2022-09-30T14:56:58;16.50;99.90
19152;DHT22;9708;53.114;9.388;2022-09-30T14:59:27;16.50;99.90
19152;DHT22;9708;53.114;9.388;2022-09-30T15:01:58;16.50;99.90
19152;DHT22;9708;53.114;9.388;2022-09-30T15:04:29;16.40;99.90
19152;DHT22;9708;53.114;9.388;2022-09-30T15:06:57;16.40;99.90
19152;DHT22;9708;53.114;9.388;2022-09-30T15:09:27;16.30;99.90
19152;DHT22;9708;53.114;9.388;2022-09-30T15:11:55;16.40;99.90
19152;DHT22;9708;53.114;9.388;2022-09-30T15:14:24;16.20;99.90
19152;DHT22;9708;53.114;9.388;2022-09-30T15:16:53;16.20;99.90
19152;DHT22;9708;53.114;9.388;2022-09-30T15:19:22;16.30;99.90
19152;DHT22;9708;53.114;9.388;2022-09-30T15:21:53;16.20;99.90
19152;DHT22;9708;53.114;9.388;2022-09-30T15:24:23;16.10;99.90
19152;DHT22;9708;53.114;9.388;2022-09-30T15:26:51;16.00;99.90
19152;DHT22;9708;53.114;9.388;2022-09-30T15:29:20;15.90;99.90
19152;DHT22;9708;53.114;9.388;2022-09-30T15:31:49;15.90;99.90
19152;DHT22;9708;53.114;9.388;2022-09-30T15:34:20;15.90;99.90
19152;DHT22;9708;53.114;9.388;2022-09-30T15:36:57;15.90;99.90
19152;DHT22;9708;53.114;9.388;2022-09-30T15:39:29;15.90;99.90
19152;DHT22;9708;53.114;9.388;2022-09-30T15:42:11;16.00;99.90
19152;DHT22;9708;53.114;9.388;2022-09-30T15:44:39;15.90;99.90
19152;DHT22;9708;53.114;9.388;2022-09-30T15:47:07;15.80;99.90
19152;DHT22;9708;53.114;9.388;2022-09-30T15:49:44;15.80;99.90
19152;DHT22;9708;53.114;9.388;2022-09-30T15:52:26;15.70;99.90
19152;DHT22;9708;53.114;9.388;2022-09-30T15:54:54;15.70;99.90
19152;DHT22;9708;53.114;9.388;2022-09-30T15:57:42;15.60;99.90
19152;DHT22;9708;53.114;9.388;2022-09-30T16:00:35;15.70;99.90
19152;DHT22;9708;53.114;9.388;2022-09-30T16:03:33;15.50;99.90
19152;DHT22;9708;53.114;9.388;2022-09-30T16:06:05;15.40;99.90
19152;DHT22;9708;53.114;9.388;2022-09-30T16:08:40;15.30;99.90
19152;DHT22;9708;53.114;9.388;2022-09-30T16:11:08;15.20;99.90
19152;DHT22;9708;53.114;9.388;2022-09-30T16:13:36;15.20;99.90
19152;DHT22;9708;53.114;9.388;2022-09-30T16:16:13;15.20;99.90
19152;DHT22;9708;53.114;9.388;2022-09-30T16:18:44;15.20;99.90
19152;DHT22;9708;53.114;9.388;2022-09-30T16:24:45;15.00;99.90
19152;DHT22;9708;53.114;9.388;2022-09-30T16:27:21;15.00;99.90
19152;DHT22;9708;53.114;9.388;2022-09-30T16:29:50;14.80;99.90
19152;DHT22;9708;53.114;9.388;2022-09-30T16:32:17;14.90;99.90
19152;DHT22;9708;53.114;9.388;2022-09-30T16:34:44;14.80;99.90
19152;DHT22;9708;53.114;9.388;2022-09-30T16:37:12;14.70;99.90
19152;DHT22;9708;53.114;9.388;2022-09-30T16:39:40;14.70;99.90
19152;DHT22;9708;53.114;9.388;2022-09-30T16:42:11;14.70;99.90
19152;DHT22;9708;53.114;9.388;2022-09-30T16:44:38;14.50;99.90
19152;DHT22;9708;53.114;9.388;2022-09-30T16:47:07;14.40;99.90